createdAt,value
2017-03-16T00:00:02.567Z,1023.35
2017-03-16T00:00:43.085Z,1023.38
2017-03-16T00:01:23.617Z,1023.39
2017-03-16T00:02:04.155Z,1023.33
2017-03-16T00:02:44.690Z,1023.36
2017-03-16T00:03:25.220Z,1023.32
2017-03-16T00:04:05.750Z,1023.34
2017-03-16T00:04:46.278Z,1023.3
2017-03-16T00:05:26.812Z,1023.32
2017-03-16T00:06:07.342Z,1023.27
2017-03-16T00:06:47.873Z,1023.29
2017-03-16T00:07:28.403Z,1023.25
2017-03-16T00:08:08.938Z,1023.25
2017-03-16T00:08:49.471Z,1023.25
2017-03-16T00:09:30.003Z,1023.24
2017-03-16T00:10:10.533Z,1023.24
2017-03-16T00:10:51.059Z,1023.19
2017-03-16T00:11:31.590Z,1023.23
2017-03-16T00:12:12.151Z,1023.23
2017-03-16T00:12:52.654Z,1023.25
2017-03-16T00:13:33.186Z,1023.26
2017-03-16T00:14:13.714Z,1023.21
2017-03-16T00:14:54.246Z,1023.27
2017-03-16T00:15:34.786Z,1023.25
2017-03-16T00:16:15.318Z,1023.26
2017-03-16T00:16:55.850Z,1023.27
2017-03-16T00:17:36.376Z,1023.23
2017-03-16T00:18:16.911Z,1023.23
2017-03-16T00:18:57.446Z,1023.21
2017-03-16T00:19:37.978Z,1023.21
2017-03-16T00:20:18.511Z,1023.23
2017-03-16T00:20:59.041Z,1023.24
2017-03-16T00:21:39.564Z,1023.22
2017-03-16T00:22:20.099Z,1023.21
2017-03-16T00:23:00.630Z,1023.19
2017-03-16T00:23:41.164Z,1023.22
2017-03-16T00:24:21.688Z,1023.19
2017-03-16T00:25:02.230Z,1023.19
2017-03-16T00:25:42.779Z,1023.17
2017-03-16T00:26:23.290Z,1023.2
2017-03-16T00:27:03.826Z,1023.16
2017-03-16T00:27:44.357Z,1023.12
2017-03-16T00:28:24.887Z,1023.12
2017-03-16T00:29:05.421Z,1023.16
2017-03-16T00:29:45.951Z,1023.1
2017-03-16T00:30:26.482Z,1023.1
2017-03-16T00:31:07.014Z,1023.12
2017-03-16T00:31:47.545Z,1023.11
2017-03-16T00:32:28.077Z,1023.09
2017-03-16T00:33:08.653Z,1023.06
2017-03-16T00:33:49.182Z,1023.05
2017-03-16T00:34:29.710Z,1023.04
2017-03-16T00:35:10.238Z,1023.04
2017-03-16T00:35:50.761Z,1023.01
2017-03-16T00:36:31.288Z,1023.01
2017-03-16T00:37:11.825Z,1023.01
2017-03-16T00:37:52.350Z,1022.99
2017-03-16T00:38:32.886Z,1023.03
2017-03-16T00:39:13.419Z,1023
2017-03-16T00:39:53.951Z,1022.99
2017-03-16T00:40:34.490Z,1023.02
2017-03-16T00:41:15.005Z,1023.02
2017-03-16T00:41:55.539Z,1023.01
2017-03-16T00:42:36.069Z,1023.02
2017-03-16T00:43:16.596Z,1023.02
2017-03-16T00:43:57.129Z,1023.02
2017-03-16T00:44:37.658Z,1023.01
2017-03-16T00:45:18.190Z,1023.01
2017-03-16T00:45:58.723Z,1022.97
2017-03-16T00:46:39.249Z,1022.98
2017-03-16T00:47:19.783Z,1022.99
2017-03-16T00:48:00.313Z,1023.01
2017-03-16T00:48:40.858Z,1022.99
2017-03-16T00:49:21.392Z,1022.94
2017-03-16T00:50:01.923Z,1022.98
2017-03-16T00:50:42.455Z,1022.97
2017-03-16T00:51:22.988Z,1022.97
2017-03-16T00:52:03.521Z,1022.94
2017-03-16T00:52:44.050Z,1022.94
2017-03-16T00:53:24.577Z,1022.99
2017-03-16T00:54:05.103Z,1022.95
2017-03-16T00:54:45.638Z,1022.95
2017-03-16T00:55:26.172Z,1022.97
2017-03-16T00:56:06.711Z,1022.97
2017-03-16T00:56:47.246Z,1022.97
2017-03-16T00:57:27.779Z,1022.98
2017-03-16T00:58:08.306Z,1022.98
2017-03-16T00:58:48.838Z,1022.95
2017-03-16T00:59:29.370Z,1022.97
2017-03-16T01:00:09.901Z,1022.98
2017-03-16T01:00:50.431Z,1022.95
2017-03-16T01:01:30.959Z,1022.95
2017-03-16T01:02:11.489Z,1022.93
2017-03-16T01:02:52.025Z,1022.93
2017-03-16T01:03:32.555Z,1022.91
2017-03-16T01:04:13.085Z,1022.94
2017-03-16T01:04:53.609Z,1022.89
2017-03-16T01:05:34.140Z,1022.91
2017-03-16T01:06:14.674Z,1022.96
2017-03-16T01:06:55.209Z,1022.93
2017-03-16T01:07:35.740Z,1022.95
2017-03-16T01:08:16.270Z,1022.97
2017-03-16T01:08:56.803Z,1022.94
2017-03-16T01:09:37.334Z,1022.93
2017-03-16T01:10:17.863Z,1022.93
2017-03-16T01:10:58.390Z,1022.91
2017-03-16T01:11:38.914Z,1022.92
2017-03-16T01:12:19.448Z,1022.89
2017-03-16T01:12:59.976Z,1022.87
2017-03-16T01:13:40.508Z,1022.88
2017-03-16T01:14:21.040Z,1022.87
2017-03-16T01:15:01.566Z,1022.85
2017-03-16T01:15:42.095Z,1022.83
2017-03-16T01:16:22.621Z,1022.89
2017-03-16T01:17:03.150Z,1022.83
2017-03-16T01:17:43.677Z,1022.82
2017-03-16T01:18:24.205Z,1022.82
2017-03-16T01:19:04.737Z,1022.85
2017-03-16T01:19:45.262Z,1022.79
2017-03-16T01:20:25.795Z,1022.84
2017-03-16T01:21:06.320Z,1022.86
2017-03-16T01:21:46.849Z,1022.83
2017-03-16T01:22:27.386Z,1022.84
2017-03-16T01:23:07.919Z,1022.85
2017-03-16T01:23:48.448Z,1022.82
2017-03-16T01:24:28.969Z,1022.84
2017-03-16T01:25:09.534Z,1022.81
2017-03-16T01:25:50.062Z,1022.85
2017-03-16T01:26:30.593Z,1022.85
2017-03-16T01:27:11.129Z,1022.83
2017-03-16T01:27:51.666Z,1022.79
2017-03-16T01:28:32.199Z,1022.79
2017-03-16T01:29:12.725Z,1022.76
2017-03-16T01:29:53.253Z,1022.77
2017-03-16T01:30:33.803Z,1022.8
2017-03-16T01:31:14.331Z,1022.75
2017-03-16T01:31:54.865Z,1022.77
2017-03-16T01:32:35.394Z,1022.79
2017-03-16T01:33:15.925Z,1022.76
2017-03-16T01:33:56.462Z,1022.77
2017-03-16T01:34:36.988Z,1022.76
2017-03-16T01:35:17.520Z,1022.74
2017-03-16T01:35:58.054Z,1022.74
2017-03-16T01:36:38.580Z,1022.73
2017-03-16T01:37:19.110Z,1022.72
2017-03-16T01:37:59.643Z,1022.74
2017-03-16T01:38:40.174Z,1022.7
2017-03-16T01:39:20.707Z,1022.69
2017-03-16T01:40:01.238Z,1022.69
2017-03-16T01:40:41.763Z,1022.65
2017-03-16T01:41:22.297Z,1022.66
2017-03-16T01:42:02.826Z,1022.63
2017-03-16T01:42:43.359Z,1022.63
2017-03-16T01:43:23.878Z,1022.63
2017-03-16T01:44:04.412Z,1022.61
2017-03-16T01:44:44.940Z,1022.59
2017-03-16T01:45:25.474Z,1022.59
2017-03-16T01:46:06.007Z,1022.58
2017-03-16T01:46:46.540Z,1022.53
2017-03-16T01:47:27.069Z,1022.52
2017-03-16T01:48:07.597Z,1022.52
2017-03-16T01:48:48.143Z,1022.48
2017-03-16T01:49:28.663Z,1022.48
2017-03-16T01:50:09.188Z,1022.46
2017-03-16T01:50:49.717Z,1022.47
2017-03-16T01:51:30.253Z,1022.5
2017-03-16T01:52:10.783Z,1022.48
2017-03-16T01:52:51.317Z,1022.49
2017-03-16T01:53:31.847Z,1022.48
2017-03-16T01:54:12.377Z,1022.47
2017-03-16T01:54:52.908Z,1022.45
2017-03-16T01:55:33.438Z,1022.47
2017-03-16T01:56:13.969Z,1022.46
2017-03-16T01:56:54.492Z,1022.42
2017-03-16T01:57:35.025Z,1022.43
2017-03-16T01:58:15.553Z,1022.41
2017-03-16T01:58:56.085Z,1022.41
2017-03-16T01:59:36.618Z,1022.44
2017-03-16T02:00:17.141Z,1022.44
2017-03-16T02:00:57.670Z,1022.4
2017-03-16T02:01:38.200Z,1022.43
2017-03-16T02:02:18.728Z,1022.42
2017-03-16T02:02:59.262Z,1022.45
2017-03-16T02:03:39.793Z,1022.42
2017-03-16T02:04:20.323Z,1022.44
2017-03-16T02:05:00.859Z,1022.43
2017-03-16T02:05:41.389Z,1022.42
2017-03-16T02:06:21.922Z,1022.41
2017-03-16T02:07:02.447Z,1022.39
2017-03-16T02:07:42.976Z,1022.39
2017-03-16T02:08:23.511Z,1022.39
2017-03-16T02:09:04.041Z,1022.38
2017-03-16T02:09:44.577Z,1022.34
2017-03-16T02:10:25.106Z,1022.33
2017-03-16T02:11:05.640Z,1022.32
2017-03-16T02:11:46.181Z,1022.38
2017-03-16T02:12:26.707Z,1022.37
2017-03-16T02:13:07.242Z,1022.38
2017-03-16T02:13:47.776Z,1022.42
2017-03-16T02:14:28.301Z,1022.4
2017-03-16T02:15:08.830Z,1022.39
2017-03-16T02:15:49.365Z,1022.39
2017-03-16T02:16:29.894Z,1022.37
2017-03-16T02:17:10.428Z,1022.38
2017-03-16T02:17:50.954Z,1022.33
2017-03-16T02:18:31.491Z,1022.37
2017-03-16T02:19:12.022Z,1022.34
2017-03-16T02:19:52.557Z,1022.36
2017-03-16T02:20:33.089Z,1022.32
2017-03-16T02:21:13.628Z,1022.34
2017-03-16T02:21:54.153Z,1022.34
2017-03-16T02:22:34.689Z,1022.33
2017-03-16T02:23:15.212Z,1022.33
2017-03-16T02:23:55.747Z,1022.32
2017-03-16T02:24:36.284Z,1022.31
2017-03-16T02:25:16.800Z,1022.33
2017-03-16T02:25:57.328Z,1022.3
2017-03-16T02:26:37.866Z,1022.31
2017-03-16T02:27:18.394Z,1022.31
2017-03-16T02:27:58.931Z,1022.3
2017-03-16T02:28:39.467Z,1022.29
2017-03-16T02:29:19.998Z,1022.3
2017-03-16T02:30:00.531Z,1022.27
2017-03-16T02:30:41.068Z,1022.26
2017-03-16T02:31:21.623Z,1022.25
2017-03-16T02:32:02.153Z,1022.22
2017-03-16T02:32:42.689Z,1022.2
2017-03-16T02:33:23.201Z,1022.17
2017-03-16T02:34:03.743Z,1022.17
2017-03-16T02:34:44.275Z,1022.19
2017-03-16T02:35:24.811Z,1022.16
2017-03-16T02:36:05.343Z,1022.14
2017-03-16T02:36:45.866Z,1022.15
2017-03-16T02:37:26.394Z,1022.11
2017-03-16T02:38:06.931Z,1022.11
2017-03-16T02:38:47.461Z,1022.11
2017-03-16T02:39:27.994Z,1022.12
2017-03-16T02:40:08.525Z,1022.09
2017-03-16T02:40:49.045Z,1022.08
2017-03-16T02:41:29.586Z,1022.09
2017-03-16T02:42:10.124Z,1022.12
2017-03-16T02:42:50.666Z,1022.09
2017-03-16T02:43:31.192Z,1022.09
2017-03-16T02:44:11.721Z,1022.09
2017-03-16T02:44:52.256Z,1022.08
2017-03-16T02:45:32.789Z,1022.13
2017-03-16T02:46:13.323Z,1022.07
2017-03-16T02:46:53.856Z,1022.07
2017-03-16T02:47:34.386Z,1022.04
2017-03-16T02:48:14.908Z,1022.05
2017-03-16T02:48:55.439Z,1021.99
2017-03-16T02:49:35.974Z,1021.99
2017-03-16T02:50:16.509Z,1022.02
2017-03-16T02:50:57.043Z,1021.97
2017-03-16T02:51:37.575Z,1021.96
2017-03-16T02:52:18.106Z,1021.97
2017-03-16T02:52:58.684Z,1021.96
2017-03-16T02:53:39.210Z,1021.98
2017-03-16T02:54:19.744Z,1021.94
2017-03-16T02:55:00.284Z,1021.95
2017-03-16T02:55:40.823Z,1021.92
2017-03-16T02:56:21.355Z,1021.93
2017-03-16T02:57:01.879Z,1021.94
2017-03-16T02:57:42.410Z,1021.96
2017-03-16T02:58:22.949Z,1021.93
2017-03-16T02:59:03.477Z,1021.92
2017-03-16T02:59:44.009Z,1021.92
2017-03-16T03:00:24.539Z,1021.9
2017-03-16T03:01:05.064Z,1021.91
2017-03-16T03:01:45.593Z,1021.93
2017-03-16T03:02:26.124Z,1021.92
2017-03-16T03:03:06.658Z,1021.9
2017-03-16T03:03:47.190Z,1021.93
2017-03-16T03:04:27.724Z,1021.94
2017-03-16T03:05:08.254Z,1021.96
2017-03-16T03:05:48.795Z,1021.94
2017-03-16T03:06:29.327Z,1021.94
2017-03-16T03:07:09.864Z,1021.91
2017-03-16T03:07:50.397Z,1021.89
2017-03-16T03:08:30.928Z,1021.91
2017-03-16T03:09:11.469Z,1021.88
2017-03-16T03:09:51.995Z,1021.9
2017-03-16T03:10:32.527Z,1021.9
2017-03-16T03:11:13.061Z,1021.86
2017-03-16T03:11:53.588Z,1021.89
2017-03-16T03:12:34.111Z,1021.86
2017-03-16T03:13:14.649Z,1021.88
2017-03-16T03:13:55.183Z,1021.9
2017-03-16T03:14:35.717Z,1021.85
2017-03-16T03:15:16.240Z,1021.85
2017-03-16T03:15:56.771Z,1021.87
2017-03-16T03:16:37.301Z,1021.88
2017-03-16T03:17:17.832Z,1021.87
2017-03-16T03:17:58.364Z,1021.83
2017-03-16T03:18:38.902Z,1021.87
2017-03-16T03:19:19.480Z,1021.84
2017-03-16T03:20:00.010Z,1021.84
2017-03-16T03:20:40.541Z,1021.82
2017-03-16T03:21:21.067Z,1021.84
2017-03-16T03:22:01.601Z,1021.8
2017-03-16T03:22:42.140Z,1021.82
2017-03-16T03:23:22.673Z,1021.79
2017-03-16T03:24:03.206Z,1021.81
2017-03-16T03:24:43.733Z,1021.77
2017-03-16T03:25:24.268Z,1021.72
2017-03-16T03:26:04.815Z,1021.75
2017-03-16T03:26:45.350Z,1021.72
2017-03-16T03:27:25.889Z,1021.74
2017-03-16T03:28:06.424Z,1021.76
2017-03-16T03:28:46.958Z,1021.72
2017-03-16T03:29:27.493Z,1021.7
2017-03-16T03:30:08.023Z,1021.73
2017-03-16T03:30:48.561Z,1021.72
2017-03-16T03:31:29.095Z,1021.68
2017-03-16T03:32:09.626Z,1021.67
2017-03-16T03:32:50.156Z,1021.7
2017-03-16T03:33:30.683Z,1021.66
2017-03-16T03:34:11.223Z,1021.66
2017-03-16T03:34:51.762Z,1021.62
2017-03-16T03:35:32.295Z,1021.6
2017-03-16T03:36:12.830Z,1021.57
2017-03-16T03:36:53.357Z,1021.6
2017-03-16T03:37:33.890Z,1021.55
2017-03-16T03:38:14.406Z,1021.55
2017-03-16T03:38:54.946Z,1021.51
2017-03-16T03:39:35.483Z,1021.47
2017-03-16T03:40:16.010Z,1021.5
2017-03-16T03:40:56.544Z,1021.49
2017-03-16T03:41:37.072Z,1021.48
2017-03-16T03:42:17.608Z,1021.5
2017-03-16T03:42:58.139Z,1021.5
2017-03-16T03:43:38.663Z,1021.48
2017-03-16T03:44:19.194Z,1021.51
2017-03-16T03:44:59.723Z,1021.56
2017-03-16T03:45:40.256Z,1021.55
2017-03-16T03:46:20.788Z,1021.55
2017-03-16T03:47:01.348Z,1021.51
2017-03-16T03:47:41.888Z,1021.54
2017-03-16T03:48:22.410Z,1021.54
2017-03-16T03:49:02.943Z,1021.52
2017-03-16T03:49:43.473Z,1021.54
2017-03-16T03:50:24.006Z,1021.54
2017-03-16T03:51:04.542Z,1021.53
2017-03-16T03:51:45.066Z,1021.55
2017-03-16T03:52:25.598Z,1021.52
2017-03-16T03:53:06.202Z,1021.52
2017-03-16T03:53:46.742Z,1021.5
2017-03-16T03:54:27.269Z,1021.53
2017-03-16T03:55:07.803Z,1021.52
2017-03-16T03:55:48.333Z,1021.53
2017-03-16T03:56:28.864Z,1021.53
2017-03-16T03:57:09.400Z,1021.57
2017-03-16T03:57:49.929Z,1021.52
2017-03-16T03:58:30.452Z,1021.57
2017-03-16T03:59:10.981Z,1021.58
2017-03-16T03:59:51.520Z,1021.57
2017-03-16T04:00:32.051Z,1021.56
2017-03-16T04:01:12.575Z,1021.58
2017-03-16T04:01:53.110Z,1021.6
2017-03-16T04:02:33.638Z,1021.58
2017-03-16T04:03:14.171Z,1021.6
2017-03-16T04:03:54.701Z,1021.57
2017-03-16T04:04:35.227Z,1021.56
2017-03-16T04:05:15.777Z,1021.6
2017-03-16T04:05:56.288Z,1021.6
2017-03-16T04:06:36.821Z,1021.58
2017-03-16T04:07:17.355Z,1021.57
2017-03-16T04:07:57.880Z,1021.6
2017-03-16T04:08:38.415Z,1021.62
2017-03-16T04:09:18.947Z,1021.6
2017-03-16T04:09:59.486Z,1021.6
2017-03-16T04:10:40.075Z,1021.59
2017-03-16T04:11:20.604Z,1021.58
2017-03-16T04:12:01.141Z,1021.56
2017-03-16T04:12:41.671Z,1021.55
2017-03-16T04:13:22.207Z,1021.53
2017-03-16T04:14:02.733Z,1021.51
2017-03-16T04:14:43.269Z,1021.58
2017-03-16T04:15:23.841Z,1021.58
2017-03-16T04:16:04.368Z,1021.53
2017-03-16T04:16:44.906Z,1021.55
2017-03-16T04:17:25.486Z,1021.54
2017-03-16T04:18:06.017Z,1021.55
2017-03-16T04:18:46.543Z,1021.56
2017-03-16T04:19:27.078Z,1021.55
2017-03-16T04:20:07.610Z,1021.54
2017-03-16T04:20:48.138Z,1021.58
2017-03-16T04:21:28.676Z,1021.57
2017-03-16T04:22:09.204Z,1021.55
2017-03-16T04:22:49.740Z,1021.58
2017-03-16T04:23:30.275Z,1021.58
2017-03-16T04:24:10.812Z,1021.56
2017-03-16T04:24:51.342Z,1021.59
2017-03-16T04:25:31.889Z,1021.59
2017-03-16T04:26:12.421Z,1021.55
2017-03-16T04:26:52.952Z,1021.54
2017-03-16T04:27:33.487Z,1021.57
2017-03-16T04:28:14.034Z,1021.56
2017-03-16T04:28:54.582Z,1021.54
2017-03-16T04:29:35.132Z,1021.56
2017-03-16T04:30:15.683Z,1021.56
2017-03-16T04:30:56.196Z,1021.55
2017-03-16T04:31:36.734Z,1021.56
2017-03-16T04:32:17.258Z,1021.56
2017-03-16T04:32:57.796Z,1021.55
2017-03-16T04:33:38.333Z,1021.56
2017-03-16T04:34:18.877Z,1021.58
2017-03-16T04:34:59.408Z,1021.58
2017-03-16T04:35:39.933Z,1021.55
2017-03-16T04:36:20.472Z,1021.55
2017-03-16T04:37:01.008Z,1021.55
2017-03-16T04:37:41.545Z,1021.57
2017-03-16T04:38:22.071Z,1021.57
2017-03-16T04:39:02.610Z,1021.54
2017-03-16T04:39:43.137Z,1021.52
2017-03-16T04:40:23.668Z,1021.52
2017-03-16T04:41:04.202Z,1021.54
2017-03-16T04:41:44.738Z,1021.53
2017-03-16T04:42:25.271Z,1021.54
2017-03-16T04:43:05.785Z,1021.56
2017-03-16T04:43:46.323Z,1021.57
2017-03-16T04:44:26.854Z,1021.56
2017-03-16T04:45:07.379Z,1021.6
2017-03-16T04:45:47.920Z,1021.54
2017-03-16T04:46:28.458Z,1021.58
2017-03-16T04:47:08.995Z,1021.54
2017-03-16T04:47:49.526Z,1021.54
2017-03-16T04:48:30.067Z,1021.55
2017-03-16T04:49:10.599Z,1021.59
2017-03-16T04:49:51.130Z,1021.54
2017-03-16T04:50:31.650Z,1021.56
2017-03-16T04:51:12.209Z,1021.54
2017-03-16T04:51:52.741Z,1021.6
2017-03-16T04:52:33.276Z,1021.64
2017-03-16T04:53:13.806Z,1021.62
2017-03-16T04:53:54.338Z,1021.6
2017-03-16T04:54:34.870Z,1021.57
2017-03-16T04:55:15.399Z,1021.59
2017-03-16T04:55:55.924Z,1021.62
2017-03-16T04:56:36.545Z,1021.61
2017-03-16T04:57:18.047Z,1021.61
2017-03-16T04:57:58.709Z,1021.6
2017-03-16T04:58:39.250Z,1021.63
2017-03-16T04:59:19.782Z,1021.61
2017-03-16T05:00:00.316Z,1021.62
2017-03-16T05:00:40.846Z,1021.6
2017-03-16T05:01:21.391Z,1021.63
2017-03-16T05:02:01.931Z,1021.57
2017-03-16T05:02:42.463Z,1021.59
2017-03-16T05:03:23.028Z,1021.58
2017-03-16T05:04:03.570Z,1021.58
2017-03-16T05:04:44.105Z,1021.56
2017-03-16T05:05:24.642Z,1021.57
2017-03-16T05:06:05.199Z,1021.58
2017-03-16T05:06:45.726Z,1021.56
2017-03-16T05:07:26.250Z,1021.57
2017-03-16T05:08:06.804Z,1021.58
2017-03-16T05:08:47.401Z,1021.56
2017-03-16T05:09:27.985Z,1021.59
2017-03-16T05:10:08.519Z,1021.59
2017-03-16T05:10:49.047Z,1021.55
2017-03-16T05:11:29.591Z,1021.56
2017-03-16T05:12:10.159Z,1021.54
2017-03-16T05:12:50.693Z,1021.55
2017-03-16T05:13:31.271Z,1021.55
2017-03-16T05:14:12.596Z,1021.53
2017-03-16T05:14:53.875Z,1021.52
2017-03-16T05:15:36.332Z,1021.53
2017-03-16T05:16:18.732Z,1021.54
2017-03-16T05:16:59.284Z,1021.53
2017-03-16T05:17:39.807Z,1021.52
2017-03-16T05:18:20.452Z,1021.57
2017-03-16T05:19:00.989Z,1021.54
2017-03-16T05:19:41.588Z,1021.56
2017-03-16T05:20:22.208Z,1021.55
2017-03-16T05:21:02.743Z,1021.56
2017-03-16T05:21:43.298Z,1021.49
2017-03-16T05:22:23.833Z,1021.54
2017-03-16T05:23:04.368Z,1021.54
2017-03-16T05:23:45.576Z,1021.52
2017-03-16T05:24:27.276Z,1021.5
2017-03-16T05:25:09.351Z,1021.52
2017-03-16T05:25:49.899Z,1021.5
2017-03-16T05:26:30.461Z,1021.49
2017-03-16T05:27:10.995Z,1021.47
2017-03-16T05:27:51.563Z,1021.47
2017-03-16T05:28:32.095Z,1021.52
2017-03-16T05:29:13.210Z,1021.48
2017-03-16T05:29:54.901Z,1021.49
2017-03-16T05:30:35.466Z,1021.51
2017-03-16T05:31:16.047Z,1021.47
2017-03-16T05:31:56.579Z,1021.45
2017-03-16T05:32:37.143Z,1021.49
2017-03-16T05:33:17.673Z,1021.46
2017-03-16T05:33:58.447Z,1021.45
2017-03-16T05:34:39.050Z,1021.53
2017-03-16T05:35:19.664Z,1021.52
2017-03-16T05:36:03.323Z,1021.48
2017-03-16T05:36:46.647Z,1021.54
2017-03-16T05:37:28.070Z,1021.5
2017-03-16T05:38:08.637Z,1021.47
2017-03-16T05:38:49.166Z,1021.5
2017-03-16T05:39:29.688Z,1021.5
2017-03-16T05:40:10.226Z,1021.48
2017-03-16T05:40:50.755Z,1021.5
2017-03-16T05:41:31.285Z,1021.51
2017-03-16T05:42:11.817Z,1021.49
2017-03-16T05:42:52.354Z,1021.49
2017-03-16T05:43:32.890Z,1021.48
2017-03-16T05:44:13.422Z,1021.56
2017-03-16T05:44:53.941Z,1021.48
2017-03-16T05:45:34.471Z,1021.52
2017-03-16T05:46:15.005Z,1021.54
2017-03-16T05:46:55.549Z,1021.51
2017-03-16T05:47:36.093Z,1021.52
2017-03-16T05:48:16.615Z,1021.49
2017-03-16T05:48:57.149Z,1021.5
2017-03-16T05:49:37.741Z,1021.53
2017-03-16T05:50:18.356Z,1021.49
2017-03-16T05:50:58.886Z,1021.54
2017-03-16T05:51:39.422Z,1021.52
2017-03-16T05:52:19.950Z,1021.5
2017-03-16T05:53:00.487Z,1021.49
2017-03-16T05:53:41.031Z,1021.51
2017-03-16T05:54:21.558Z,1021.53
2017-03-16T05:55:02.089Z,1021.48
2017-03-16T05:55:42.624Z,1021.51
2017-03-16T05:56:23.159Z,1021.5
2017-03-16T05:57:03.719Z,1021.49
2017-03-16T05:57:44.254Z,1021.49
2017-03-16T05:58:24.789Z,1021.49
2017-03-16T05:59:05.372Z,1021.48
2017-03-16T05:59:45.907Z,1021.47
2017-03-16T06:00:26.504Z,1021.47
2017-03-16T06:01:07.035Z,1021.45
2017-03-16T06:01:47.567Z,1021.48
2017-03-16T06:02:28.102Z,1021.45
2017-03-16T06:03:08.685Z,1021.46
2017-03-16T06:03:49.275Z,1021.47
2017-03-16T06:04:29.813Z,1021.45
2017-03-16T06:05:10.349Z,1021.46
2017-03-16T06:05:50.882Z,1021.43
2017-03-16T06:06:31.415Z,1021.44
2017-03-16T06:07:11.952Z,1021.5
2017-03-16T06:07:52.525Z,1021.53
2017-03-16T06:08:33.061Z,1021.53
2017-03-16T06:09:13.588Z,1021.5
2017-03-16T06:09:54.156Z,1021.52
2017-03-16T06:10:34.683Z,1021.45
2017-03-16T06:11:15.202Z,1021.48
2017-03-16T06:11:55.789Z,1021.45
2017-03-16T06:12:36.326Z,1021.45
2017-03-16T06:13:16.890Z,1021.44
2017-03-16T06:13:57.444Z,1021.43
2017-03-16T06:14:37.979Z,1021.49
2017-03-16T06:15:18.526Z,1021.46
2017-03-16T06:15:59.050Z,1021.44
2017-03-16T06:16:39.629Z,1021.46
2017-03-16T06:17:20.179Z,1021.45
2017-03-16T06:18:00.744Z,1021.43
2017-03-16T06:18:41.331Z,1021.43
2017-03-16T06:19:21.876Z,1021.44
2017-03-16T06:20:02.403Z,1021.42
2017-03-16T06:20:42.958Z,1021.41
2017-03-16T06:21:23.493Z,1021.43
2017-03-16T06:22:04.062Z,1021.42
2017-03-16T06:22:44.631Z,1021.39
2017-03-16T06:23:25.178Z,1021.39
2017-03-16T06:24:05.704Z,1021.44
2017-03-16T06:24:46.233Z,1021.4
2017-03-16T06:25:26.770Z,1021.43
2017-03-16T06:26:07.302Z,1021.42
2017-03-16T06:26:47.833Z,1021.45
2017-03-16T06:27:28.410Z,1021.5
2017-03-16T06:28:08.940Z,1021.47
2017-03-16T06:28:49.484Z,1021.45
2017-03-16T06:29:30.021Z,1021.49
2017-03-16T06:30:10.553Z,1021.48
2017-03-16T06:30:51.087Z,1021.53
2017-03-16T06:31:31.616Z,1021.54
2017-03-16T06:32:12.214Z,1021.56
2017-03-16T06:32:52.746Z,1021.54
2017-03-16T06:33:33.269Z,1021.52
2017-03-16T06:34:13.805Z,1021.49
2017-03-16T06:34:54.380Z,1021.53
2017-03-16T06:35:34.911Z,1021.56
2017-03-16T06:36:15.450Z,1021.53
2017-03-16T06:36:55.984Z,1021.52
2017-03-16T06:37:36.517Z,1021.54
2017-03-16T06:38:17.049Z,1021.57
2017-03-16T06:38:57.616Z,1021.54
2017-03-16T06:39:38.140Z,1021.54
2017-03-16T06:40:18.697Z,1021.5
2017-03-16T06:40:59.231Z,1021.53
2017-03-16T06:41:39.765Z,1021.54
2017-03-16T06:42:20.304Z,1021.52
2017-03-16T06:43:00.840Z,1021.54
2017-03-16T06:43:41.370Z,1021.54
2017-03-16T06:44:21.917Z,1021.55
2017-03-16T06:45:02.473Z,1021.53
2017-03-16T06:45:43.009Z,1021.55
2017-03-16T06:46:23.540Z,1021.55
2017-03-16T06:47:04.081Z,1021.51
2017-03-16T06:47:44.626Z,1021.57
2017-03-16T06:48:25.245Z,1021.57
2017-03-16T06:49:05.907Z,1021.53
2017-03-16T06:49:46.510Z,1021.54
2017-03-16T06:50:27.074Z,1021.49
2017-03-16T06:51:07.604Z,1021.48
2017-03-16T06:51:48.135Z,1021.5
2017-03-16T06:52:28.716Z,1021.48
2017-03-16T06:53:09.315Z,1021.53
2017-03-16T06:53:49.838Z,1021.48
2017-03-16T06:54:30.369Z,1021.46
2017-03-16T06:55:10.925Z,1021.45
2017-03-16T06:55:51.461Z,1021.42
2017-03-16T06:56:32.054Z,1021.41
2017-03-16T06:57:12.590Z,1021.43
2017-03-16T06:57:53.121Z,1021.46
2017-03-16T06:58:33.663Z,1021.44
2017-03-16T06:59:14.194Z,1021.43
2017-03-16T06:59:54.736Z,1021.43
2017-03-16T07:00:35.275Z,1021.44
2017-03-16T07:01:15.809Z,1021.45
2017-03-16T07:01:56.342Z,1021.46
2017-03-16T07:02:36.878Z,1021.43
2017-03-16T07:03:17.392Z,1021.45
2017-03-16T07:03:57.926Z,1021.46
2017-03-16T07:04:38.478Z,1021.48
2017-03-16T07:05:19.006Z,1021.47
2017-03-16T07:05:59.533Z,1021.51
2017-03-16T07:06:40.065Z,1021.5
2017-03-16T07:07:20.621Z,1021.51
2017-03-16T07:08:01.147Z,1021.47
2017-03-16T07:08:41.677Z,1021.5
2017-03-16T07:09:22.221Z,1021.48
2017-03-16T07:10:02.754Z,1021.51
2017-03-16T07:10:43.293Z,1021.44
2017-03-16T07:11:23.842Z,1021.47
2017-03-16T07:12:04.404Z,1021.49
2017-03-16T07:12:44.935Z,1021.49
2017-03-16T07:13:25.498Z,1021.48
2017-03-16T07:14:06.035Z,1021.47
2017-03-16T07:14:46.604Z,1021.47
2017-03-16T07:15:27.158Z,1021.51
2017-03-16T07:16:07.689Z,1021.51
2017-03-16T07:16:48.261Z,1021.49
2017-03-16T07:17:28.800Z,1021.51
2017-03-16T07:18:09.353Z,1021.5
2017-03-16T07:18:49.870Z,1021.48
2017-03-16T07:19:30.414Z,1021.52
2017-03-16T07:20:10.968Z,1021.48
2017-03-16T07:20:51.531Z,1021.46
2017-03-16T07:21:32.084Z,1021.46
2017-03-16T07:22:12.616Z,1021.44
2017-03-16T07:22:53.155Z,1021.46
2017-03-16T07:23:33.679Z,1021.45
2017-03-16T07:24:14.199Z,1021.47
2017-03-16T07:24:54.732Z,1021.46
2017-03-16T07:25:35.280Z,1021.42
2017-03-16T07:26:15.816Z,1021.44
2017-03-16T07:26:56.391Z,1021.42
2017-03-16T07:27:36.913Z,1021.42
2017-03-16T07:28:17.495Z,1021.41
2017-03-16T07:28:58.045Z,1021.41
2017-03-16T07:29:38.569Z,1021.4
2017-03-16T07:30:19.146Z,1021.42
2017-03-16T07:30:59.683Z,1021.41
2017-03-16T07:31:40.225Z,1021.37
2017-03-16T07:32:20.749Z,1021.38
2017-03-16T07:33:01.278Z,1021.38
2017-03-16T07:33:41.807Z,1021.32
2017-03-16T07:34:22.406Z,1021.31
2017-03-16T07:35:02.939Z,1021.33
2017-03-16T07:35:43.509Z,1021.36
2017-03-16T07:36:24.034Z,1021.33
2017-03-16T07:37:04.563Z,1021.34
2017-03-16T07:37:45.119Z,1021.35
2017-03-16T07:38:25.672Z,1021.35
2017-03-16T07:39:06.276Z,1021.36
2017-03-16T07:39:46.789Z,1021.36
2017-03-16T07:40:27.352Z,1021.34
2017-03-16T07:41:07.924Z,1021.32
2017-03-16T07:41:48.457Z,1021.33
2017-03-16T07:42:28.989Z,1021.32
2017-03-16T07:43:09.575Z,1021.3
2017-03-16T07:43:50.172Z,1021.34
2017-03-16T07:44:30.700Z,1021.32
2017-03-16T07:45:11.242Z,1021.3
2017-03-16T07:45:51.771Z,1021.28
2017-03-16T07:46:32.312Z,1021.32
2017-03-16T07:47:12.918Z,1021.31
2017-03-16T07:47:53.479Z,1021.32
2017-03-16T07:48:34.019Z,1021.29
2017-03-16T07:49:14.560Z,1021.23
2017-03-16T07:49:55.095Z,1021.28
2017-03-16T07:50:35.635Z,1021.26
2017-03-16T07:51:16.173Z,1021.27
2017-03-16T07:51:56.692Z,1021.23
2017-03-16T07:52:37.223Z,1021.26
2017-03-16T07:53:17.760Z,1021.25
2017-03-16T07:53:58.299Z,1021.25
2017-03-16T07:54:38.877Z,1021.22
2017-03-16T07:55:19.487Z,1021.18
2017-03-16T07:56:00.077Z,1021.19
2017-03-16T07:56:40.610Z,1021.14
2017-03-16T07:57:21.201Z,1021.13
2017-03-16T07:58:01.761Z,1021.17
2017-03-16T07:58:42.293Z,1021.15
2017-03-16T07:59:22.859Z,1021.15
2017-03-16T08:00:03.393Z,1021.14
2017-03-16T08:00:43.921Z,1021.13
2017-03-16T08:01:24.459Z,1021.13
2017-03-16T08:02:04.995Z,1021.16
2017-03-16T08:02:45.520Z,1021.17
2017-03-16T08:03:26.097Z,1021.15
2017-03-16T08:04:06.626Z,1021.15
2017-03-16T08:04:47.197Z,1021.13
2017-03-16T08:05:27.765Z,1021.16
2017-03-16T08:06:08.352Z,1021.16
2017-03-16T08:06:48.906Z,1021.19
2017-03-16T08:07:29.439Z,1021.15
2017-03-16T08:08:10.003Z,1021.17
2017-03-16T08:08:50.525Z,1021.19
2017-03-16T08:09:31.060Z,1021.17
2017-03-16T08:10:11.636Z,1021.14
2017-03-16T08:10:52.173Z,1021.15
2017-03-16T08:11:32.704Z,1021.14